createdAt,value
2019-05-21T00:00:26.335Z,13.75
2019-05-21T00:01:26.328Z,13.76
2019-05-21T00:02:26.320Z,13.83
2019-05-21T00:03:26.311Z,13.79
2019-05-21T00:04:28.608Z,13.79
2019-05-21T00:05:26.290Z,13.84
2019-05-21T00:06:26.284Z,13.86
2019-05-21T00:07:26.274Z,13.79
2019-05-21T00:08:26.266Z,13.79
2019-05-21T00:09:26.253Z,13.76
2019-05-21T00:10:26.243Z,13.68
2019-05-21T00:11:26.237Z,13.68
2019-05-21T00:12:26.226Z,13.73
2019-05-21T00:13:26.215Z,13.68
2019-05-21T00:14:26.208Z,13.62
2019-05-21T00:15:26.198Z,13.75
2019-05-21T00:16:26.205Z,13.63
2019-05-21T00:17:26.180Z,13.68
2019-05-21T00:18:26.172Z,13.68
2019-05-21T00:19:26.162Z,13.62
2019-05-21T00:20:26.154Z,13.76
2019-05-21T00:21:26.144Z,13.76
2019-05-21T00:22:26.169Z,13.76
2019-05-21T00:23:26.124Z,13.84
2019-05-21T00:24:26.116Z,13.81
2019-05-21T00:25:26.109Z,13.72
2019-05-21T00:26:26.097Z,13.68
2019-05-21T00:27:26.088Z,13.71
2019-05-21T00:28:26.082Z,13.66
2019-05-21T00:29:26.076Z,13.62
2019-05-21T00:30:26.063Z,13.66
2019-05-21T00:31:26.053Z,13.55
2019-05-21T00:32:26.040Z,13.68
2019-05-21T00:33:26.032Z,13.69
2019-05-21T00:34:26.027Z,13.65
2019-05-21T00:35:26.021Z,13.68
2019-05-21T00:36:26.004Z,13.62
2019-05-21T00:37:25.995Z,13.69
2019-05-21T00:38:25.989Z,13.66
2019-05-21T00:39:25.979Z,13.59
2019-05-21T00:40:25.969Z,13.65
2019-05-21T00:41:25.962Z,13.53
2019-05-21T00:42:25.954Z,13.62
2019-05-21T00:43:25.957Z,13.71
2019-05-21T00:44:25.937Z,13.68
2019-05-21T00:45:25.927Z,13.62
2019-05-21T00:46:25.917Z,13.57
2019-05-21T00:47:25.910Z,13.51
2019-05-21T00:48:25.897Z,13.63
2019-05-21T00:49:25.888Z,13.66
2019-05-21T00:50:25.879Z,13.71
2019-05-21T00:51:25.873Z,13.61
2019-05-21T00:52:25.860Z,13.59
2019-05-21T00:53:25.852Z,13.63
2019-05-21T00:54:25.844Z,13.59
2019-05-21T00:55:25.836Z,13.63
2019-05-21T00:56:25.823Z,13.62
2019-05-21T00:57:25.815Z,13.63
2019-05-21T00:58:25.806Z,13.59
2019-05-21T00:59:25.795Z,13.69
2019-05-21T01:00:25.788Z,13.68
2019-05-21T01:01:25.789Z,13.75
2019-05-21T01:02:25.769Z,13.81
2019-05-21T01:03:25.763Z,13.80
2019-05-21T01:04:25.750Z,13.79
2019-05-21T01:05:25.741Z,13.66
2019-05-21T01:06:25.731Z,13.62
2019-05-21T01:07:25.721Z,13.69
2019-05-21T01:08:25.717Z,13.75
2019-05-21T01:09:25.706Z,13.71
2019-05-21T01:10:25.697Z,13.71
2019-05-21T01:11:25.685Z,13.63
2019-05-21T01:12:25.674Z,13.63
2019-05-21T01:13:25.669Z,13.63
2019-05-21T01:14:25.660Z,13.65
2019-05-21T01:15:25.650Z,13.48
2019-05-21T01:16:25.642Z,13.51
2019-05-21T01:17:25.635Z,13.51
2019-05-21T01:18:25.624Z,13.53
2019-05-21T01:19:25.614Z,13.54
2019-05-21T01:20:25.605Z,13.51
2019-05-21T01:21:25.593Z,13.48
2019-05-21T01:22:25.583Z,13.47
2019-05-21T01:23:25.575Z,13.51
2019-05-21T01:24:25.563Z,13.51
2019-05-21T01:25:25.554Z,13.51
2019-05-21T01:26:25.546Z,13.50
2019-05-21T01:27:25.537Z,13.53
2019-05-21T01:28:25.525Z,13.48
2019-05-21T01:29:25.543Z,13.39
2019-05-21T01:30:25.508Z,13.41
2019-05-21T01:31:25.499Z,13.36
2019-05-21T01:32:25.488Z,13.32
2019-05-21T01:33:25.480Z,13.36
2019-05-21T01:34:25.472Z,13.44
2019-05-21T01:35:25.463Z,13.32
2019-05-21T01:36:25.451Z,13.29
2019-05-21T01:37:25.443Z,13.36
2019-05-21T01:38:25.432Z,13.29
2019-05-21T01:39:25.424Z,13.29
2019-05-21T01:40:25.414Z,13.25
2019-05-21T01:41:25.404Z,13.29
2019-05-21T01:42:25.398Z,13.29
2019-05-21T01:43:25.399Z,13.39
2019-05-21T01:44:25.379Z,13.47
2019-05-21T01:45:25.370Z,13.47
2019-05-21T01:46:25.370Z,13.38
2019-05-21T01:47:25.348Z,13.47
2019-05-21T01:48:25.341Z,13.47
2019-05-21T01:49:25.332Z,13.50
2019-05-21T01:50:25.321Z,13.59
2019-05-21T01:51:25.312Z,13.59
2019-05-21T01:52:25.302Z,13.61
2019-05-21T01:53:25.291Z,13.48
2019-05-21T01:54:25.341Z,13.54
2019-05-21T01:55:25.273Z,13.51
2019-05-21T01:56:25.262Z,13.50
2019-05-21T01:57:25.256Z,13.51
2019-05-21T01:58:25.246Z,13.48
2019-05-21T01:59:25.237Z,13.50
2019-05-21T02:00:25.232Z,13.53
2019-05-21T02:01:25.217Z,13.50
2019-05-21T02:02:25.208Z,13.36
2019-05-21T02:03:25.200Z,13.41
2019-05-21T02:04:25.187Z,13.53
2019-05-21T02:05:33.244Z,13.47
2019-05-21T02:06:25.170Z,13.51
2019-05-21T02:07:25.162Z,13.51
2019-05-21T02:08:25.150Z,13.38
2019-05-21T02:09:25.143Z,13.53
2019-05-21T02:10:25.134Z,13.41
2019-05-21T02:11:25.123Z,13.44
2019-05-21T02:12:25.117Z,13.51
2019-05-21T02:13:25.105Z,13.35
2019-05-21T02:14:25.098Z,13.36
2019-05-21T02:15:25.090Z,13.39
2019-05-21T02:16:25.078Z,13.47
2019-05-21T02:17:25.076Z,13.43
2019-05-21T02:18:25.060Z,13.39
2019-05-21T02:19:25.050Z,13.36
2019-05-21T02:20:25.073Z,13.47
2019-05-21T02:21:25.031Z,13.38
2019-05-21T02:22:25.022Z,13.43
2019-05-21T02:23:25.015Z,13.36
2019-05-21T02:24:25.005Z,13.43
2019-05-21T02:25:24.996Z,13.43
2019-05-21T02:26:24.991Z,13.39
2019-05-21T02:27:24.977Z,13.38
2019-05-21T02:28:24.967Z,13.36
2019-05-21T02:29:24.957Z,13.36
2019-05-21T02:30:24.949Z,13.38
2019-05-21T02:31:24.940Z,13.27
2019-05-21T02:32:24.929Z,13.35
2019-05-21T02:33:24.923Z,13.27
2019-05-21T02:34:24.909Z,13.29
2019-05-21T02:35:24.899Z,13.38
2019-05-21T02:36:24.892Z,13.29
2019-05-21T02:37:24.884Z,13.47
2019-05-21T02:38:24.880Z,13.28
2019-05-21T02:39:24.879Z,13.28
2019-05-21T02:40:24.857Z,13.32
2019-05-21T02:41:24.843Z,13.35
2019-05-21T02:42:24.841Z,13.29
2019-05-21T02:43:24.828Z,13.35
2019-05-21T02:44:24.815Z,13.29
2019-05-21T02:45:24.824Z,13.38
2019-05-21T02:46:24.798Z,13.29
2019-05-21T02:47:24.789Z,13.27
2019-05-21T02:48:24.776Z,13.31
2019-05-21T02:49:24.771Z,13.43
2019-05-21T02:50:24.765Z,13.39
2019-05-21T02:51:24.753Z,13.50
2019-05-21T02:52:24.742Z,13.39
2019-05-21T02:53:24.732Z,13.38
2019-05-21T02:54:39.524Z,13.44
2019-05-21T02:55:24.716Z,13.32
2019-05-21T02:56:24.701Z,13.32
2019-05-21T02:57:24.696Z,13.29
2019-05-21T02:58:24.685Z,13.36
2019-05-21T02:59:24.674Z,13.38
2019-05-21T03:00:24.662Z,13.36
2019-05-21T03:01:24.660Z,13.38
2019-05-21T03:02:24.645Z,13.36
2019-05-21T03:03:24.635Z,13.38
2019-05-21T03:04:24.627Z,13.27
2019-05-21T03:05:24.620Z,13.32
2019-05-21T03:06:24.609Z,13.25
2019-05-21T03:07:25.663Z,13.19
2019-05-21T03:08:24.587Z,13.22
2019-05-21T03:09:24.581Z,13.19
2019-05-21T03:10:24.582Z,13.16
2019-05-21T03:11:24.562Z,13.17
2019-05-21T03:12:24.551Z,13.19
2019-05-21T03:13:24.543Z,13.24
2019-05-21T03:14:24.533Z,13.19
2019-05-21T03:15:24.524Z,13.16
2019-05-21T03:16:24.518Z,13.14
2019-05-21T03:17:24.512Z,13.21
2019-05-21T03:18:24.494Z,13.13
2019-05-21T03:19:24.489Z,13.14
2019-05-21T03:20:24.472Z,13.17
2019-05-21T03:21:24.465Z,13.13
2019-05-21T03:22:24.455Z,13.07
2019-05-21T03:23:24.443Z,13.09
2019-05-21T03:24:24.436Z,13.09
2019-05-21T03:25:24.426Z,12.99
2019-05-21T03:26:24.417Z,13.04
2019-05-21T03:27:24.415Z,13.09
2019-05-21T03:28:24.406Z,13.07
2019-05-21T03:29:24.388Z,13.09
2019-05-21T03:30:24.384Z,13.16
2019-05-21T03:31:24.401Z,13.09
2019-05-21T03:32:24.358Z,13.06
2019-05-21T03:33:24.368Z,13.04
2019-05-21T03:34:24.345Z,12.92
2019-05-21T03:35:24.340Z,12.94
2019-05-21T03:36:33.280Z,12.96
2019-05-21T03:37:24.312Z,12.94
2019-05-21T03:38:24.305Z,12.92
2019-05-21T03:39:24.301Z,12.84
2019-05-21T03:40:24.285Z,12.91
2019-05-21T03:41:24.275Z,13.03
2019-05-21T03:42:24.265Z,13.07
2019-05-21T03:43:24.258Z,13.07
2019-05-21T03:44:24.251Z,13.10
2019-05-21T03:45:24.239Z,13.06
2019-05-21T03:46:24.225Z,13.10
2019-05-21T03:47:24.216Z,13.12
2019-05-21T03:48:24.205Z,13.13
2019-05-21T03:49:24.197Z,13.16
2019-05-21T03:50:24.190Z,13.14
2019-05-21T03:51:24.183Z,13.21
2019-05-21T03:52:24.169Z,13.22
2019-05-21T03:53:24.158Z,13.14
2019-05-21T03:54:24.154Z,13.14
2019-05-21T03:55:24.144Z,13.19
2019-05-21T03:56:24.130Z,13.21
2019-05-21T03:57:24.123Z,13.13
2019-05-21T03:58:24.113Z,13.19
2019-05-21T03:59:24.117Z,13.19
2019-05-21T04:00:24.096Z,13.17
2019-05-21T04:01:24.084Z,13.14
2019-05-21T04:02:24.077Z,13.12
2019-05-21T04:03:24.069Z,13.10
2019-05-21T04:04:24.056Z,13.16
2019-05-21T04:05:24.051Z,13.09
2019-05-21T04:06:24.039Z,13.10
2019-05-21T04:07:24.027Z,13.07
2019-05-21T04:08:24.018Z,13.12
2019-05-21T04:09:24.011Z,13.12
2019-05-21T04:10:24.007Z,13.04
2019-05-21T04:11:23.993Z,13.10
2019-05-21T04:12:23.982Z,13.03
2019-05-21T04:13:23.974Z,13.10
2019-05-21T04:14:23.962Z,13.12
2019-05-21T04:15:23.960Z,13.12
2019-05-21T04:16:23.946Z,13.24
2019-05-21T04:17:23.944Z,13.28
2019-05-21T04:18:23.922Z,13.29
2019-05-21T04:19:23.915Z,13.41
2019-05-21T04:20:23.907Z,13.41
2019-05-21T04:21:23.893Z,13.31
2019-05-21T04:22:23.889Z,13.41
2019-05-21T04:23:23.878Z,13.32
2019-05-21T04:24:23.865Z,13.28
2019-05-21T04:25:23.864Z,13.25
2019-05-21T04:26:23.848Z,13.29
2019-05-21T04:27:23.837Z,13.22
2019-05-21T04:28:23.829Z,13.13
2019-05-21T04:29:23.819Z,13.07
2019-05-21T04:30:23.813Z,13.17
2019-05-21T04:31:23.802Z,13.24
2019-05-21T04:32:23.820Z,13.28
2019-05-21T04:33:23.783Z,13.27
2019-05-21T04:34:23.779Z,13.28
2019-05-21T04:35:23.764Z,13.21
2019-05-21T04:36:23.754Z,13.21
2019-05-21T04:37:23.744Z,13.31
2019-05-21T04:38:23.733Z,13.31
2019-05-21T04:39:23.736Z,13.31
2019-05-21T04:40:23.715Z,13.31
2019-05-21T04:41:23.708Z,13.29
2019-05-21T04:42:23.696Z,13.24
2019-05-21T04:43:23.685Z,13.17
2019-05-21T04:44:23.678Z,13.27
2019-05-21T04:45:23.682Z,13.32
2019-05-21T04:46:23.659Z,13.32
2019-05-21T04:47:23.650Z,13.25
2019-05-21T04:48:23.638Z,13.28
2019-05-21T04:49:23.629Z,13.21
2019-05-21T04:50:23.623Z,13.22
2019-05-21T04:51:23.612Z,13.19
2019-05-21T04:52:23.598Z,13.19
2019-05-21T04:53:23.591Z,13.16
2019-05-21T04:54:23.582Z,13.21
2019-05-21T04:55:23.572Z,13.19
2019-05-21T04:56:23.563Z,13.17
2019-05-21T04:57:23.558Z,13.17
2019-05-21T04:58:23.544Z,13.10
2019-05-21T04:59:23.537Z,13.10
2019-05-21T05:00:23.527Z,13.09
2019-05-21T05:01:23.514Z,13.17
2019-05-21T05:02:23.505Z,13.19
2019-05-21T05:03:23.497Z,13.22
2019-05-21T05:04:23.489Z,13.31
2019-05-21T05:05:23.476Z,13.41
2019-05-21T05:06:23.467Z,13.62
2019-05-21T05:07:28.064Z,13.69
2019-05-21T05:08:23.449Z,13.69
2019-05-21T05:09:23.441Z,13.66
2019-05-21T05:10:23.429Z,13.66
2019-05-21T05:11:23.419Z,13.65
2019-05-21T05:12:23.411Z,13.48
2019-05-21T05:13:23.402Z,13.57
2019-05-21T05:14:23.402Z,13.59
2019-05-21T05:15:23.385Z,13.65
2019-05-21T05:16:23.422Z,13.61
2019-05-21T05:17:23.363Z,13.62
2019-05-21T05:18:23.356Z,13.61
2019-05-21T05:19:23.347Z,13.62
2019-05-21T05:20:23.335Z,13.53
2019-05-21T05:21:23.329Z,13.55
2019-05-21T05:22:23.317Z,13.59
2019-05-21T05:23:23.312Z,13.62
2019-05-21T05:24:23.299Z,13.68
2019-05-21T05:25:23.289Z,13.57
2019-05-21T05:26:23.281Z,13.59
2019-05-21T05:27:23.271Z,13.66
2019-05-21T05:28:23.260Z,13.57
2019-05-21T05:29:23.252Z,13.57
2019-05-21T05:30:23.244Z,13.54
2019-05-21T05:31:23.233Z,13.65
2019-05-21T05:32:23.224Z,13.69
2019-05-21T05:33:23.220Z,13.66
2019-05-21T05:34:23.251Z,13.65
2019-05-21T05:35:23.198Z,13.63
2019-05-21T05:36:23.187Z,13.79
2019-05-21T05:37:23.183Z,13.73
2019-05-21T05:38:23.172Z,13.69
2019-05-21T05:39:23.162Z,13.72
2019-05-21T05:40:23.152Z,13.71
2019-05-21T05:41:23.144Z,13.83
2019-05-21T05:42:23.133Z,13.76
2019-05-21T05:43:23.120Z,13.83
2019-05-21T05:44:23.111Z,13.75
2019-05-21T05:45:23.103Z,13.80
2019-05-21T05:46:23.112Z,13.81
2019-05-21T05:47:23.113Z,13.80
2019-05-21T05:48:23.078Z,13.76
2019-05-21T05:49:23.070Z,13.80
2019-05-21T05:50:23.115Z,13.79
2019-05-21T05:51:23.051Z,13.84
2019-05-21T05:52:23.039Z,13.86
2019-05-21T05:53:23.033Z,13.86
2019-05-21T05:54:23.019Z,13.94
2019-05-21T05:55:23.012Z,13.99
2019-05-21T05:56:23.003Z,13.98
2019-05-21T05:57:22.994Z,13.93
2019-05-21T05:58:23.009Z,14.08
2019-05-21T05:59:22.980Z,13.96
2019-05-21T06:00:22.969Z,13.98
2019-05-21T06:01:22.961Z,13.91
2019-05-21T06:02:22.955Z,13.94
2019-05-21T06:03:22.994Z,13.93
2019-05-21T06:04:22.931Z,13.96
2019-05-21T06:05:22.926Z,13.90
2019-05-21T06:06:22.922Z,13.94
2019-05-21T06:07:22.911Z,13.90
2019-05-21T06:08:22.964Z,13.87
2019-05-21T06:09:22.899Z,13.91
2019-05-21T06:10:22.902Z,13.91
2019-05-21T06:11:22.874Z,13.93
2019-05-21T06:12:22.861Z,13.94
2019-05-21T06:13:22.854Z,13.94
2019-05-21T06:14:22.844Z,13.91
2019-05-21T06:15:22.833Z,13.96
2019-05-21T06:16:22.828Z,14.01
2019-05-21T06:17:22.818Z,14.05
2019-05-21T06:18:22.814Z,14.02
2019-05-21T06:19:22.798Z,14.02
2019-05-21T06:20:22.793Z,14.02
2019-05-21T06:21:22.778Z,13.99
2019-05-21T06:22:22.768Z,14.04
2019-05-21T06:23:22.759Z,14.08
2019-05-21T06:24:22.750Z,14.20
2019-05-21T06:25:22.773Z,14.09
2019-05-21T06:26:22.729Z,14.11
2019-05-21T06:27:22.723Z,14.12
2019-05-21T06:28:22.711Z,14.08
2019-05-21T06:29:22.702Z,14.08
2019-05-21T06:30:22.696Z,14.04
2019-05-21T06:31:22.691Z,14.12
2019-05-21T06:32:22.678Z,14.17
2019-05-21T06:33:22.671Z,14.05
2019-05-21T06:34:22.662Z,14.06
2019-05-21T06:35:22.650Z,14.19
2019-05-21T06:36:22.658Z,14.16
2019-05-21T06:37:22.631Z,14.21
2019-05-21T06:38:22.623Z,14.27
2019-05-21T06:39:22.616Z,14.24
2019-05-21T06:40:22.611Z,14.20
2019-05-21T06:41:22.596Z,14.26
2019-05-21T06:42:22.611Z,14.39
2019-05-21T06:43:22.582Z,14.39
2019-05-21T06:44:22.572Z,14.45
2019-05-21T06:45:22.563Z,14.41
2019-05-21T06:46:22.558Z,14.34
2019-05-21T06:47:22.543Z,14.42
2019-05-21T06:48:22.538Z,14.45
2019-05-21T06:49:22.525Z,14.31
2019-05-21T06:50:22.519Z,14.30
2019-05-21T06:51:22.511Z,14.31
2019-05-21T06:52:22.500Z,14.35
2019-05-21T06:53:22.522Z,14.38
2019-05-21T06:54:22.494Z,14.44
2019-05-21T06:55:22.473Z,14.45
2019-05-21T06:56:22.469Z,14.45
2019-05-21T06:57:22.457Z,14.44
2019-05-21T06:58:22.449Z,14.48
2019-05-21T06:59:22.438Z,14.44
2019-05-21T07:00:22.430Z,14.41
2019-05-21T07:01:28.166Z,14.44
2019-05-21T07:02:22.413Z,14.44
2019-05-21T07:03:22.408Z,14.39
2019-05-21T07:04:22.395Z,14.42
2019-05-21T07:05:22.387Z,14.31
2019-05-21T07:06:22.376Z,14.34
2019-05-21T07:07:22.367Z,14.36
2019-05-21T07:08:34.311Z,14.36
2019-05-21T07:09:22.351Z,14.44
2019-05-21T07:10:22.341Z,14.45
2019-05-21T07:11:22.335Z,14.49
2019-05-21T07:12:22.393Z,14.41
2019-05-21T07:13:22.313Z,14.44
2019-05-21T07:14:22.309Z,14.44
2019-05-21T07:15:22.301Z,14.41
2019-05-21T07:16:22.291Z,14.42
2019-05-21T07:17:22.282Z,14.34
2019-05-21T07:18:22.273Z,14.34
2019-05-21T07:19:22.267Z,14.26
2019-05-21T07:20:22.263Z,14.36
2019-05-21T07:21:22.250Z,14.44
2019-05-21T07:22:22.245Z,14.36
2019-05-21T07:23:22.231Z,14.35
2019-05-21T07:24:22.223Z,14.42
2019-05-21T07:25:22.219Z,14.42
2019-05-21T07:26:22.203Z,14.45
2019-05-21T07:27:22.197Z,14.38
2019-05-21T07:28:22.276Z,14.46
2019-05-21T07:29:22.178Z,14.53
2019-05-21T07:30:22.169Z,14.61
2019-05-21T07:31:22.159Z,14.63
2019-05-21T07:32:22.152Z,14.69
2019-05-21T07:33:22.143Z,14.75
2019-05-21T07:34:22.135Z,14.78
2019-05-21T07:35:22.127Z,14.82
2019-05-21T07:36:22.121Z,14.78
2019-05-21T07:37:22.107Z,14.91
2019-05-21T07:38:22.099Z,14.93
2019-05-21T07:39:22.092Z,14.94
2019-05-21T07:40:22.315Z,15.12
2019-05-21T07:41:22.071Z,15.25
2019-05-21T07:42:22.064Z,15.23
2019-05-21T07:43:22.057Z,15.38
2019-05-21T07:44:22.047Z,15.35
2019-05-21T07:45:22.038Z,15.48
2019-05-21T07:46:22.040Z,15.58
2019-05-21T07:47:22.023Z,15.52
2019-05-21T07:48:22.015Z,15.67
2019-05-21T07:49:22.007Z,15.70
2019-05-21T07:50:22.020Z,15.74
2019-05-21T07:51:22.004Z,15.89
2019-05-21T07:52:21.983Z,15.91
2019-05-21T07:53:21.976Z,15.95
2019-05-21T07:54:21.966Z,15.99
2019-05-21T07:55:21.959Z,16.06
2019-05-21T07:56:21.946Z,16.10
2019-05-21T07:57:21.942Z,16.14
2019-05-21T07:58:21.937Z,16.04
2019-05-21T07:59:21.927Z,16.07
2019-05-21T08:00:21.918Z,16.10
2019-05-21T08:01:21.917Z,16.29
2019-05-21T08:02:21.902Z,16.32
2019-05-21T08:03:21.903Z,16.26
2019-05-21T08:04:21.890Z,16.26
2019-05-21T08:05:21.877Z,16.11
2019-05-21T08:06:21.869Z,16.18
2019-05-21T08:07:21.864Z,16.06
2019-05-21T08:08:21.857Z,16.07
2019-05-21T08:09:21.846Z,16.13
2019-05-21T08:10:21.845Z,15.80
2019-05-21T08:11:21.838Z,15.89
2019-05-21T08:12:37.485Z,15.86
2019-05-21T08:13:21.819Z,15.86
2019-05-21T08:14:21.811Z,15.78
2019-05-21T08:15:21.805Z,15.78
2019-05-21T08:16:21.797Z,15.77
2019-05-21T08:17:21.793Z,15.88
2019-05-21T08:18:21.781Z,15.89
2019-05-21T08:19:22.021Z,15.86
2019-05-21T08:20:21.762Z,15.85
2019-05-21T08:21:21.760Z,15.84
2019-05-21T08:22:21.792Z,15.85
2019-05-21T08:23:21.740Z,15.73
2019-05-21T08:24:21.733Z,15.84
2019-05-21T08:25:21.735Z,15.88
2019-05-21T08:26:21.760Z,15.77
2019-05-21T08:27:21.709Z,15.85
2019-05-21T08:28:21.703Z,15.89
2019-05-21T08:29:21.699Z,15.80
2019-05-21T08:30:21.688Z,15.88
2019-05-21T08:31:21.680Z,15.78
2019-05-21T08:32:21.670Z,15.64
2019-05-21T08:33:21.664Z,15.60
2019-05-21T08:34:21.658Z,15.64
2019-05-21T08:35:21.651Z,15.59
2019-05-21T08:36:21.643Z,15.52
2019-05-21T08:37:21.631Z,15.56
2019-05-21T08:38:21.627Z,15.60
2019-05-21T08:39:28.758Z,15.49
2019-05-21T08:40:21.611Z,15.53
2019-05-21T08:41:21.610Z,15.59
2019-05-21T08:42:21.595Z,15.60
2019-05-21T08:43:22.249Z,15.44
2019-05-21T08:44:21.576Z,15.55
2019-05-21T08:45:21.570Z,15.48
2019-05-21T08:46:21.566Z,15.49
2019-05-21T08:47:21.555Z,15.43
2019-05-21T08:48:21.546Z,15.55
2019-05-21T08:49:21.539Z,15.56
2019-05-21T08:50:21.534Z,15.62
2019-05-21T08:51:21.522Z,15.55
2019-05-21T08:52:21.515Z,15.52
2019-05-21T08:53:21.522Z,15.58
2019-05-21T08:54:21.502Z,15.53
2019-05-21T08:55:21.494Z,15.52
2019-05-21T08:56:21.492Z,15.56
2019-05-21T08:57:21.477Z,15.37
2019-05-21T08:58:21.470Z,15.38
2019-05-21T08:59:21.460Z,15.37
2019-05-21T09:00:21.449Z,15.27
2019-05-21T09:01:21.441Z,15.30
2019-05-21T09:02:21.439Z,15.12
2019-05-21T09:03:21.427Z,15.13
2019-05-21T09:04:21.421Z,15.19
2019-05-21T09:05:21.415Z,15.11
2019-05-21T09:06:21.410Z,14.95
2019-05-21T09:07:21.398Z,14.93
2019-05-21T09:08:21.388Z,14.80
2019-05-21T09:09:21.382Z,14.79
2019-05-21T09:10:21.377Z,14.85
2019-05-21T09:11:21.373Z,14.87
2019-05-21T09:12:21.357Z,14.82
2019-05-21T09:13:21.349Z,14.82
2019-05-21T09:14:21.360Z,14.79
2019-05-21T09:15:21.335Z,14.91
2019-05-21T09:16:21.336Z,14.82
2019-05-21T09:17:21.336Z,14.79
2019-05-21T09:18:21.326Z,14.86
2019-05-21T09:19:21.300Z,14.80
2019-05-21T09:20:21.294Z,14.74
2019-05-21T09:21:21.282Z,14.80
2019-05-21T09:22:21.274Z,14.74
2019-05-21T09:23:21.268Z,14.80
2019-05-21T09:24:21.257Z,14.78
2019-05-21T09:25:21.251Z,14.74
2019-05-21T09:26:21.240Z,14.63
2019-05-21T09:27:21.233Z,14.61
2019-05-21T09:28:21.222Z,14.78
2019-05-21T09:29:21.216Z,14.57
2019-05-21T09:30:21.210Z,14.64
2019-05-21T09:31:21.200Z,14.57
2019-05-21T09:32:21.185Z,14.57
2019-05-21T09:33:21.181Z,14.60
2019-05-21T09:34:21.172Z,14.48
2019-05-21T09:35:21.162Z,14.41
2019-05-21T09:36:21.151Z,14.29
2019-05-21T09:37:21.144Z,14.29
2019-05-21T09:38:21.136Z,14.31
2019-05-21T09:39:21.128Z,14.30
2019-05-21T09:40:21.121Z,14.23
2019-05-21T09:41:21.265Z,14.08
2019-05-21T09:42:21.105Z,14.04
2019-05-21T09:43:21.097Z,14.11
2019-05-21T09:44:21.087Z,14.19
2019-05-21T09:45:21.080Z,14.12
2019-05-21T09:46:21.076Z,14.16
2019-05-21T09:47:21.056Z,14.23
2019-05-21T09:48:21.049Z,14.19
2019-05-21T09:49:21.044Z,14.13
2019-05-21T09:50:21.036Z,14.23
2019-05-21T09:51:21.025Z,14.24
2019-05-21T09:52:21.014Z,14.12
2019-05-21T09:53:21.005Z,14.08
2019-05-21T09:54:20.995Z,14.11
2019-05-21T09:55:20.993Z,14.13
2019-05-21T09:56:20.981Z,14.12
2019-05-21T09:57:20.970Z,14.23
2019-05-21T09:58:20.960Z,14.16
2019-05-21T09:59:20.957Z,14.05
2019-05-21T10:00:20.944Z,14.06
2019-05-21T10:01:20.937Z,14.04
2019-05-21T10:02:20.926Z,14.11
2019-05-21T10:03:20.919Z,14.16
2019-05-21T10:04:20.910Z,14.20
2019-05-21T10:05:20.905Z,14.20
2019-05-21T10:06:20.890Z,14.27
2019-05-21T10:07:38.015Z,14.23
2019-05-21T10:08:20.874Z,14.27
2019-05-21T10:09:20.965Z,14.29
2019-05-21T10:10:20.857Z,14.35
2019-05-21T10:11:20.847Z,14.54
2019-05-21T10:12:20.839Z,14.54
2019-05-21T10:13:20.831Z,14.59
2019-05-21T10:14:20.822Z,14.48
2019-05-21T10:15:20.813Z,14.49
2019-05-21T10:16:20.805Z,14.54
2019-05-21T10:17:20.795Z,14.61
2019-05-21T10:18:20.788Z,14.64
2019-05-21T10:19:20.783Z,14.63
2019-05-21T10:20:20.771Z,14.60
2019-05-21T10:21:20.835Z,14.61
2019-05-21T10:22:20.752Z,14.79
2019-05-21T10:23:20.746Z,14.83
2019-05-21T10:24:20.734Z,14.72
2019-05-21T10:25:20.725Z,14.72
2019-05-21T10:26:20.717Z,14.83
2019-05-21T10:27:20.712Z,14.85
2019-05-21T10:28:20.705Z,14.85
2019-05-21T10:29:20.690Z,14.78
2019-05-21T10:30:20.683Z,14.82
2019-05-21T10:31:20.680Z,14.94
2019-05-21T10:32:20.669Z,14.94
2019-05-21T10:33:20.661Z,14.94
2019-05-21T10:34:20.654Z,14.97
2019-05-21T10:35:20.646Z,14.98
2019-05-21T10:36:20.637Z,14.97
2019-05-21T10:37:20.627Z,14.97
2019-05-21T10:38:20.620Z,14.83
2019-05-21T10:39:20.612Z,14.94
2019-05-21T10:40:20.601Z,14.80
2019-05-21T10:41:20.592Z,14.94
2019-05-21T10:42:20.586Z,14.94
2019-05-21T10:43:20.581Z,14.75
2019-05-21T10:44:20.577Z,14.74
2019-05-21T10:45:20.560Z,14.78
2019-05-21T10:46:20.550Z,14.71
2019-05-21T10:47:20.546Z,14.79
2019-05-21T10:48:20.536Z,14.82
2019-05-21T10:49:20.544Z,14.87
2019-05-21T10:50:20.525Z,14.97
2019-05-21T10:51:20.513Z,15.12
2019-05-21T10:52:20.504Z,14.83
2019-05-21T10:53:20.497Z,14.95
2019-05-21T10:54:20.492Z,14.98
2019-05-21T10:55:20.545Z,15.04
2019-05-21T10:56:20.472Z,15.13
2019-05-21T10:57:20.493Z,15.18
2019-05-21T10:58:20.452Z,15.22
2019-05-21T10:59:20.446Z,15.20
2019-05-21T11:00:22.923Z,15.18
2019-05-21T11:01:20.427Z,15.27
2019-05-21T11:02:20.422Z,15.25
2019-05-21T11:03:20.586Z,15.30
2019-05-21T11:04:20.406Z,15.33
2019-05-21T11:05:20.396Z,15.43
2019-05-21T11:06:20.388Z,15.34
2019-05-21T11:07:20.411Z,15.22
2019-05-21T11:08:24.016Z,15.25
2019-05-21T11:09:20.363Z,15.28
2019-05-21T11:10:20.354Z,15.35
2019-05-21T11:11:21.209Z,15.31
2019-05-21T11:12:20.339Z,15.44
2019-05-21T11:13:20.333Z,15.35
2019-05-21T11:14:20.323Z,15.49
2019-05-21T11:15:20.372Z,15.44
2019-05-21T11:16:20.310Z,15.49
2019-05-21T11:17:20.301Z,15.46
2019-05-21T11:18:20.293Z,15.51
2019-05-21T11:19:20.284Z,15.55
2019-05-21T11:20:20.281Z,15.52
2019-05-21T11:21:20.275Z,15.60
2019-05-21T11:22:20.261Z,15.56
2019-05-21T11:23:20.257Z,15.51
2019-05-21T11:24:20.245Z,15.66
2019-05-21T11:25:20.236Z,15.58
2019-05-21T11:26:20.230Z,15.62
2019-05-21T11:27:20.223Z,15.64
2019-05-21T11:28:20.216Z,15.64
2019-05-21T11:29:20.206Z,15.71
2019-05-21T11:30:20.216Z,15.77
2019-05-21T11:31:20.200Z,15.76
2019-05-21T11:32:20.182Z,15.64
2019-05-21T11:33:20.185Z,15.74
2019-05-21T11:34:20.169Z,15.55
2019-05-21T11:35:20.160Z,15.58
2019-05-21T11:36:20.150Z,15.64
2019-05-21T11:37:20.145Z,15.66
2019-05-21T11:38:20.140Z,15.53
2019-05-21T11:39:20.127Z,15.64
2019-05-21T11:40:20.128Z,15.58
2019-05-21T11:41:20.118Z,15.67
2019-05-21T11:42:20.105Z,15.64
2019-05-21T11:43:20.103Z,15.70
2019-05-21T11:44:20.089Z,15.73
2019-05-21T11:45:31.590Z,15.66
2019-05-21T11:46:20.074Z,15.66
2019-05-21T11:47:20.066Z,15.64
2019-05-21T11:48:20.057Z,15.62
2019-05-21T11:49:20.051Z,15.52
2019-05-21T11:50:20.043Z,15.53
2019-05-21T11:51:20.037Z,15.59
2019-05-21T11:52:20.029Z,15.52
2019-05-21T11:53:20.024Z,15.59
2019-05-21T11:54:20.019Z,15.56
2019-05-21T11:55:20.006Z,15.60
2019-05-21T11:56:19.997Z,15.60
2019-05-21T11:57:19.990Z,15.66
2019-05-21T11:58:19.996Z,15.58
2019-05-21T11:59:19.974Z,15.74
2019-05-21T12:00:21.597Z,15.73
2019-05-21T12:01:19.958Z,15.85
2019-05-21T12:02:19.954Z,15.86
2019-05-21T12:03:19.945Z,15.88
2019-05-21T12:04:19.935Z,15.92
2019-05-21T12:05:20.014Z,15.95
2019-05-21T12:06:19.920Z,15.96
2019-05-21T12:07:19.917Z,15.96
2019-05-21T12:08:19.909Z,16.03
2019-05-21T12:09:19.901Z,15.99
2019-05-21T12:10:19.894Z,15.99
2019-05-21T12:11:19.885Z,15.96
2019-05-21T12:12:19.879Z,16.10
2019-05-21T12:13:20.692Z,16.08
2019-05-21T12:14:19.861Z,16.06
2019-05-21T12:15:19.854Z,16.10
2019-05-21T12:16:19.852Z,16.08
2019-05-21T12:17:19.841Z,16.14
2019-05-21T12:18:19.833Z,16.11
2019-05-21T12:19:19.825Z,16.11
2019-05-21T12:20:35.135Z,15.92
2019-05-21T12:21:19.821Z,15.98
2019-05-21T12:22:19.805Z,15.98
2019-05-21T12:23:19.806Z,15.89
2019-05-21T12:24:19.792Z,15.92
2019-05-21T12:25:19.785Z,15.92
2019-05-21T12:26:19.772Z,15.86
2019-05-21T12:27:19.774Z,15.95
2019-05-21T12:28:19.762Z,15.85
2019-05-21T12:29:19.754Z,15.81
2019-05-21T12:30:19.749Z,15.91
2019-05-21T12:31:19.737Z,16.01
2019-05-21T12:32:21.087Z,15.99
2019-05-21T12:33:19.726Z,15.99
2019-05-21T12:34:19.720Z,15.96
2019-05-21T12:35:19.711Z,16.11
2019-05-21T12:36:19.701Z,16.11
2019-05-21T12:37:19.696Z,16.11
2019-05-21T12:38:19.688Z,16.22
2019-05-21T12:39:19.686Z,16.14
2019-05-21T12:40:19.674Z,16.29
2019-05-21T12:41:19.664Z,16.36
2019-05-21T12:42:19.656Z,16.23
2019-05-21T12:43:19.653Z,16.27
2019-05-21T12:44:19.726Z,16.26
2019-05-21T12:45:19.636Z,16.26
2019-05-21T12:46:19.628Z,16.25
2019-05-21T12:47:19.623Z,16.29
2019-05-21T12:48:19.615Z,16.26
2019-05-21T12:49:19.608Z,16.23
2019-05-21T12:50:19.600Z,16.30
2019-05-21T12:51:19.596Z,16.22
2019-05-21T12:52:19.585Z,16.26